sensor_id;sensor_type;location;lat;lon;timestamp;P1;durP1;ratioP1;P2;durP2;ratioP2
19113;SDS011;9689;51.052;13.772;2024-03-07T00:01:26;63.67;;;26.27;;
19113;SDS011;9689;51.052;13.772;2024-03-07T00:06:27;63.42;;;26.08;;
19113;SDS011;9689;51.052;13.772;2024-03-07T00:11:29;68.68;;;27.52;;
19113;SDS011;9689;51.052;13.772;2024-03-07T00:16:29;66.18;;;27.27;;
19113;SDS011;9689;51.052;13.772;2024-03-07T00:21:31;71.90;;;29.98;;
19113;SDS011;9689;51.052;13.772;2024-03-07T00:26:33;63.33;;;28.08;;
19113;SDS011;9689;51.052;13.772;2024-03-07T00:31:34;76.68;;;29.10;;
19113;SDS011;9689;51.052;13.772;2024-03-07T00:36:35;64.90;;;28.27;;
19113;SDS011;9689;51.052;13.772;2024-03-07T00:41:37;71.18;;;29.08;;
19113;SDS011;9689;51.052;13.772;2024-03-07T00:46:38;72.40;;;27.92;;
19113;SDS011;9689;51.052;13.772;2024-03-07T00:51:39;70.90;;;28.27;;
19113;SDS011;9689;51.052;13.772;2024-03-07T00:56:41;66.55;;;27.73;;
19113;SDS011;9689;51.052;13.772;2024-03-07T01:01:41;65.10;;;29.45;;
19113;SDS011;9689;51.052;13.772;2024-03-07T01:06:42;69.65;;;29.15;;
19113;SDS011;9689;51.052;13.772;2024-03-07T01:11:45;71.93;;;28.58;;
19113;SDS011;9689;51.052;13.772;2024-03-07T01:16:45;73.82;;;29.83;;
19113;SDS011;9689;51.052;13.772;2024-03-07T01:21:46;63.45;;;26.27;;
19113;SDS011;9689;51.052;13.772;2024-03-07T01:26:49;66.22;;;26.42;;
19113;SDS011;9689;51.052;13.772;2024-03-07T01:31:50;70.60;;;28.45;;
19113;SDS011;9689;51.052;13.772;2024-03-07T01:36:51;66.38;;;29.13;;
19113;SDS011;9689;51.052;13.772;2024-03-07T01:41:53;70.68;;;29.48;;
19113;SDS011;9689;51.052;13.772;2024-03-07T01:46:53;65.35;;;28.02;;
19113;SDS011;9689;51.052;13.772;2024-03-07T01:51:54;70.72;;;27.77;;
19113;SDS011;9689;51.052;13.772;2024-03-07T01:56:57;59.92;;;27.05;;
19113;SDS011;9689;51.052;13.772;2024-03-07T02:01:58;77.45;;;29.30;;
19113;SDS011;9689;51.052;13.772;2024-03-07T02:07:01;73.50;;;29.55;;
19113;SDS011;9689;51.052;13.772;2024-03-07T02:12:03;67.10;;;29.20;;
19113;SDS011;9689;51.052;13.772;2024-03-07T02:17:05;74.60;;;29.30;;
19113;SDS011;9689;51.052;13.772;2024-03-07T02:22:07;81.53;;;29.65;;
19113;SDS011;9689;51.052;13.772;2024-03-07T02:27:08;80.50;;;31.45;;
19113;SDS011;9689;51.052;13.772;2024-03-07T02:32:09;75.30;;;31.23;;
19113;SDS011;9689;51.052;13.772;2024-03-07T02:37:12;67.43;;;30.70;;
19113;SDS011;9689;51.052;13.772;2024-03-07T02:42:13;76.60;;;30.75;;
19113;SDS011;9689;51.052;13.772;2024-03-07T02:47:13;71.05;;;30.77;;
19113;SDS011;9689;51.052;13.772;2024-03-07T02:52:16;78.65;;;30.50;;
19113;SDS011;9689;51.052;13.772;2024-03-07T02:57:16;74.65;;;31.08;;
19113;SDS011;9689;51.052;13.772;2024-03-07T03:02:17;79.05;;;30.73;;
19113;SDS011;9689;51.052;13.772;2024-03-07T03:07:19;87.60;;;29.95;;
19113;SDS011;9689;51.052;13.772;2024-03-07T03:12:19;74.85;;;31.00;;
19113;SDS011;9689;51.052;13.772;2024-03-07T03:17:21;71.15;;;30.45;;
19113;SDS011;9689;51.052;13.772;2024-03-07T03:22:24;69.97;;;29.17;;
19113;SDS011;9689;51.052;13.772;2024-03-07T03:27:25;82.03;;;31.95;;
19113;SDS011;9689;51.052;13.772;2024-03-07T03:32:26;71.80;;;29.13;;
19113;SDS011;9689;51.052;13.772;2024-03-07T03:37:28;71.07;;;30.50;;
19113;SDS011;9689;51.052;13.772;2024-03-07T03:42:29;66.25;;;28.92;;
19113;SDS011;9689;51.052;13.772;2024-03-07T03:47:29;68.35;;;30.02;;
19113;SDS011;9689;51.052;13.772;2024-03-07T03:52:32;68.95;;;29.83;;
19113;SDS011;9689;51.052;13.772;2024-03-07T03:57:34;66.28;;;27.45;;
19113;SDS011;9689;51.052;13.772;2024-03-07T04:02:35;71.90;;;29.58;;
19113;SDS011;9689;51.052;13.772;2024-03-07T04:07:38;62.70;;;28.80;;
19113;SDS011;9689;51.052;13.772;2024-03-07T04:12:41;71.22;;;29.00;;
19113;SDS011;9689;51.052;13.772;2024-03-07T04:17:42;61.17;;;27.50;;
19113;SDS011;9689;51.052;13.772;2024-03-07T04:22:44;63.22;;;27.67;;
19113;SDS011;9689;51.052;13.772;2024-03-07T04:27:45;68.50;;;28.85;;
19113;SDS011;9689;51.052;13.772;2024-03-07T04:32:46;56.72;;;27.45;;
19113;SDS011;9689;51.052;13.772;2024-03-07T04:37:48;74.95;;;29.80;;
19113;SDS011;9689;51.052;13.772;2024-03-07T04:42:49;73.60;;;30.13;;
19113;SDS011;9689;51.052;13.772;2024-03-07T04:47:50;61.40;;;29.80;;
19113;SDS011;9689;51.052;13.772;2024-03-07T04:52:52;69.28;;;31.05;;
19113;SDS011;9689;51.052;13.772;2024-03-07T04:57:53;62.75;;;29.10;;
19113;SDS011;9689;51.052;13.772;2024-03-07T05:02:53;60.05;;;28.98;;
19113;SDS011;9689;51.052;13.772;2024-03-07T05:07:55;65.50;;;29.50;;
19113;SDS011;9689;51.052;13.772;2024-03-07T05:12:56;58.25;;;28.38;;
19113;SDS011;9689;51.052;13.772;2024-03-07T05:17:58;57.80;;;26.88;;
19113;SDS011;9689;51.052;13.772;2024-03-07T05:23:00;63.17;;;25.55;;
19113;SDS011;9689;51.052;13.772;2024-03-07T05:28:03;61.63;;;26.83;;
19113;SDS011;9689;51.052;13.772;2024-03-07T05:33:05;54.85;;;26.60;;
19113;SDS011;9689;51.052;13.772;2024-03-07T05:38:07;53.55;;;26.08;;
19113;SDS011;9689;51.052;13.772;2024-03-07T05:43:08;52.35;;;25.55;;
19113;SDS011;9689;51.052;13.772;2024-03-07T05:48:13;56.85;;;26.10;;
19113;SDS011;9689;51.052;13.772;2024-03-07T05:53:17;59.50;;;26.65;;
19113;SDS011;9689;51.052;13.772;2024-03-07T05:58:17;50.67;;;26.05;;
19113;SDS011;9689;51.052;13.772;2024-03-07T06:03:19;55.63;;;25.85;;
19113;SDS011;9689;51.052;13.772;2024-03-07T06:08:21;59.28;;;25.05;;
19113;SDS011;9689;51.052;13.772;2024-03-07T06:13:21;55.00;;;24.67;;
19113;SDS011;9689;51.052;13.772;2024-03-07T06:18:22;58.38;;;24.80;;
19113;SDS011;9689;51.052;13.772;2024-03-07T06:23:24;49.42;;;24.85;;
19113;SDS011;9689;51.052;13.772;2024-03-07T06:28:27;48.15;;;23.35;;
19113;SDS011;9689;51.052;13.772;2024-03-07T06:33:29;50.80;;;25.13;;
19113;SDS011;9689;51.052;13.772;2024-03-07T06:38:31;54.25;;;24.33;;
19113;SDS011;9689;51.052;13.772;2024-03-07T06:43:32;50.25;;;24.02;;
19113;SDS011;9689;51.052;13.772;2024-03-07T06:48:32;52.72;;;25.15;;
19113;SDS011;9689;51.052;13.772;2024-03-07T06:53:34;52.83;;;23.10;;
19113;SDS011;9689;51.052;13.772;2024-03-07T06:58:35;55.13;;;25.15;;
19113;SDS011;9689;51.052;13.772;2024-03-07T07:03:36;48.78;;;23.58;;
19113;SDS011;9689;51.052;13.772;2024-03-07T07:08:38;54.30;;;23.98;;
19113;SDS011;9689;51.052;13.772;2024-03-07T07:13:39;49.85;;;24.17;;
19113;SDS011;9689;51.052;13.772;2024-03-07T07:18:41;46.40;;;23.80;;
19113;SDS011;9689;51.052;13.772;2024-03-07T07:23:43;52.08;;;21.77;;
19113;SDS011;9689;51.052;13.772;2024-03-07T07:28:44;43.72;;;21.77;;
19113;SDS011;9689;51.052;13.772;2024-03-07T07:33:46;47.67;;;21.23;;
19113;SDS011;9689;51.052;13.772;2024-03-07T07:38:48;42.75;;;20.20;;
19113;SDS011;9689;51.052;13.772;2024-03-07T07:43:49;35.28;;;17.90;;
19113;SDS011;9689;51.052;13.772;2024-03-07T07:48:50;38.33;;;18.45;;
19113;SDS011;9689;51.052;13.772;2024-03-07T07:53:52;39.85;;;17.27;;
19113;SDS011;9689;51.052;13.772;2024-03-07T07:58:56;33.72;;;16.63;;
19113;SDS011;9689;51.052;13.772;2024-03-07T08:03:56;35.78;;;17.13;;
19113;SDS011;9689;51.052;13.772;2024-03-07T08:08:59;34.70;;;15.00;;
19113;SDS011;9689;51.052;13.772;2024-03-07T08:14:00;34.92;;;15.60;;
19113;SDS011;9689;51.052;13.772;2024-03-07T08:19:01;36.60;;;16.00;;
19113;SDS011;9689;51.052;13.772;2024-03-07T08:24:04;29.50;;;14.32;;
19113;SDS011;9689;51.052;13.772;2024-03-07T08:29:10;34.67;;;14.88;;
19113;SDS011;9689;51.052;13.772;2024-03-07T08:34:12;26.63;;;13.70;;
19113;SDS011;9689;51.052;13.772;2024-03-07T08:39:14;32.50;;;14.35;;
19113;SDS011;9689;51.052;13.772;2024-03-07T08:44:15;30.40;;;13.95;;
19113;SDS011;9689;51.052;13.772;2024-03-07T08:49:16;30.90;;;14.07;;
19113;SDS011;9689;51.052;13.772;2024-03-07T08:54:18;24.08;;;13.18;;
19113;SDS011;9689;51.052;13.772;2024-03-07T08:59:19;30.60;;;13.38;;
19113;SDS011;9689;51.052;13.772;2024-03-07T09:04:20;23.42;;;12.82;;
19113;SDS011;9689;51.052;13.772;2024-03-07T09:09:22;29.20;;;11.65;;
19113;SDS011;9689;51.052;13.772;2024-03-07T09:14:23;18.60;;;9.93;;
19113;SDS011;9689;51.052;13.772;2024-03-07T09:19:24;21.88;;;10.18;;
19113;SDS011;9689;51.052;13.772;2024-03-07T09:24:26;22.42;;;10.43;;
19113;SDS011;9689;51.052;13.772;2024-03-07T09:29:27;19.70;;;10.77;;
19113;SDS011;9689;51.052;13.772;2024-03-07T09:34:28;24.35;;;11.57;;
19113;SDS011;9689;51.052;13.772;2024-03-07T09:39:31;26.95;;;11.38;;
19113;SDS011;9689;51.052;13.772;2024-03-07T09:44:34;26.77;;;11.52;;
19113;SDS011;9689;51.052;13.772;2024-03-07T09:49:39;23.77;;;11.50;;
19113;SDS011;9689;51.052;13.772;2024-03-07T09:54:41;25.30;;;12.18;;
19113;SDS011;9689;51.052;13.772;2024-03-07T09:59:43;25.98;;;12.85;;
19113;SDS011;9689;51.052;13.772;2024-03-07T10:04:48;23.33;;;12.57;;
19113;SDS011;9689;51.052;13.772;2024-03-07T10:09:53;23.25;;;12.45;;
19113;SDS011;9689;51.052;13.772;2024-03-07T10:14:56;21.20;;;11.20;;
19113;SDS011;9689;51.052;13.772;2024-03-07T10:19:58;24.73;;;13.10;;
19113;SDS011;9689;51.052;13.772;2024-03-07T10:25:01;23.05;;;13.25;;
19113;SDS011;9689;51.052;13.772;2024-03-07T10:30:04;29.65;;;14.45;;
19113;SDS011;9689;51.052;13.772;2024-03-07T10:35:07;29.98;;;14.98;;
19113;SDS011;9689;51.052;13.772;2024-03-07T10:40:10;29.45;;;15.00;;
19113;SDS011;9689;51.052;13.772;2024-03-07T10:45:17;26.30;;;14.98;;
19113;SDS011;9689;51.052;13.772;2024-03-07T10:50:23;26.02;;;14.73;;
19113;SDS011;9689;51.052;13.772;2024-03-07T10:55:46;29.27;;;15.45;;
19113;SDS011;9689;51.052;13.772;2024-03-07T11:00:53;31.38;;;16.10;;
19113;SDS011;9689;51.052;13.772;2024-03-07T11:05:57;30.73;;;16.25;;
19113;SDS011;9689;51.052;13.772;2024-03-07T11:10:59;36.38;;;15.48;;
19113;SDS011;9689;51.052;13.772;2024-03-07T11:16:00;32.40;;;15.75;;
19113;SDS011;9689;51.052;13.772;2024-03-07T11:21:02;30.80;;;15.38;;
19113;SDS011;9689;51.052;13.772;2024-03-07T11:26:09;30.38;;;14.32;;
19113;SDS011;9689;51.052;13.772;2024-03-07T11:31:13;28.35;;;14.15;;
19113;SDS011;9689;51.052;13.772;2024-03-07T11:36:14;35.65;;;16.17;;
19113;SDS011;9689;51.052;13.772;2024-03-07T11:41:57;30.52;;;15.05;;
19113;SDS011;9689;51.052;13.772;2024-03-07T11:46:57;34.75;;;14.63;;
19113;SDS011;9689;51.052;13.772;2024-03-07T11:52:03;29.63;;;15.60;;
19113;SDS011;9689;51.052;13.772;2024-03-07T11:57:12;38.33;;;15.10;;
19113;SDS011;9689;51.052;13.772;2024-03-07T12:02:13;38.38;;;15.20;;
19113;SDS011;9689;51.052;13.772;2024-03-07T12:07:14;30.92;;;16.85;;
19113;SDS011;9689;51.052;13.772;2024-03-07T12:12:18;32.47;;;15.68;;
19113;SDS011;9689;51.052;13.772;2024-03-07T12:17:21;31.05;;;15.68;;
19113;SDS011;9689;51.052;13.772;2024-03-07T12:22:22;28.08;;;14.85;;
19113;SDS011;9689;51.052;13.772;2024-03-07T12:27:29;25.48;;;14.45;;
19113;SDS011;9689;51.052;13.772;2024-03-07T12:32:31;29.40;;;14.45;;
19113;SDS011;9689;51.052;13.772;2024-03-07T12:37:34;29.05;;;14.80;;
19113;SDS011;9689;51.052;13.772;2024-03-07T12:42:36;24.55;;;12.55;;
19113;SDS011;9689;51.052;13.772;2024-03-07T12:47:37;24.98;;;12.00;;
19113;SDS011;9689;51.052;13.772;2024-03-07T12:52:39;26.63;;;13.63;;
19113;SDS011;9689;51.052;13.772;2024-03-07T12:57:55;29.88;;;13.00;;
19113;SDS011;9689;51.052;13.772;2024-03-07T13:03:00;22.77;;;11.15;;
19113;SDS011;9689;51.052;13.772;2024-03-07T13:08:08;25.35;;;12.35;;
19113;SDS011;9689;51.052;13.772;2024-03-07T13:13:12;27.88;;;12.70;;
19113;SDS011;9689;51.052;13.772;2024-03-07T13:18:12;21.00;;;11.25;;
19113;SDS011;9689;51.052;13.772;2024-03-07T13:23:14;24.33;;;12.05;;
19113;SDS011;9689;51.052;13.772;2024-03-07T13:28:16;24.10;;;11.88;;
19113;SDS011;9689;51.052;13.772;2024-03-07T13:33:19;19.23;;;11.48;;
19113;SDS011;9689;51.052;13.772;2024-03-07T13:38:20;21.58;;;11.85;;
19113;SDS011;9689;51.052;13.772;2024-03-07T13:43:22;18.35;;;10.77;;
19113;SDS011;9689;51.052;13.772;2024-03-07T13:48:23;21.30;;;11.02;;
19113;SDS011;9689;51.052;13.772;2024-03-07T13:53:23;25.60;;;11.40;;
19113;SDS011;9689;51.052;13.772;2024-03-07T13:58:44;25.63;;;11.38;;
19113;SDS011;9689;51.052;13.772;2024-03-07T14:09:53;24.30;;;11.82;;
19113;SDS011;9689;51.052;13.772;2024-03-07T14:15:38;23.30;;;11.52;;
19113;SDS011;9689;51.052;13.772;2024-03-07T14:20:59;26.13;;;11.57;;
19113;SDS011;9689;51.052;13.772;2024-03-07T14:31:51;20.30;;;11.38;;
19113;SDS011;9689;51.052;13.772;2024-03-07T14:36:53;27.08;;;12.82;;
19113;SDS011;9689;51.052;13.772;2024-03-07T14:41:57;22.17;;;12.07;;
19113;SDS011;9689;51.052;13.772;2024-03-07T14:47:04;20.75;;;11.73;;
19113;SDS011;9689;51.052;13.772;2024-03-07T14:52:10;22.98;;;12.93;;
19113;SDS011;9689;51.052;13.772;2024-03-07T14:57:10;23.42;;;11.10;;
19113;SDS011;9689;51.052;13.772;2024-03-07T15:02:14;28.27;;;12.75;;
19113;SDS011;9689;51.052;13.772;2024-03-07T15:07:14;25.95;;;11.90;;
19113;SDS011;9689;51.052;13.772;2024-03-07T15:12:16;22.48;;;12.23;;
19113;SDS011;9689;51.052;13.772;2024-03-07T15:17:18;29.55;;;13.25;;
19113;SDS011;9689;51.052;13.772;2024-03-07T15:22:18;30.88;;;13.10;;
19113;SDS011;9689;51.052;13.772;2024-03-07T15:27:20;25.75;;;12.93;;
19113;SDS011;9689;51.052;13.772;2024-03-07T15:32:22;28.05;;;13.88;;
19113;SDS011;9689;51.052;13.772;2024-03-07T15:37:24;27.67;;;12.52;;
19113;SDS011;9689;51.052;13.772;2024-03-07T15:42:25;27.17;;;13.38;;
19113;SDS011;9689;51.052;13.772;2024-03-07T15:47:27;29.10;;;13.73;;
19113;SDS011;9689;51.052;13.772;2024-03-07T15:52:28;26.45;;;13.75;;
19113;SDS011;9689;51.052;13.772;2024-03-07T15:57:29;28.50;;;13.85;;
19113;SDS011;9689;51.052;13.772;2024-03-07T16:02:31;25.45;;;13.73;;
19113;SDS011;9689;51.052;13.772;2024-03-07T16:07:32;27.35;;;13.85;;
19113;SDS011;9689;51.052;13.772;2024-03-07T16:12:33;33.92;;;16.00;;
19113;SDS011;9689;51.052;13.772;2024-03-07T16:17:35;30.48;;;15.68;;
19113;SDS011;9689;51.052;13.772;2024-03-07T16:22:40;28.80;;;15.18;;
19113;SDS011;9689;51.052;13.772;2024-03-07T16:27:41;31.38;;;15.00;;
19113;SDS011;9689;51.052;13.772;2024-03-07T16:32:44;34.42;;;16.60;;
19113;SDS011;9689;51.052;13.772;2024-03-07T16:37:48;29.23;;;14.98;;
19113;SDS011;9689;51.052;13.772;2024-03-07T16:42:50;30.23;;;14.57;;
19113;SDS011;9689;51.052;13.772;2024-03-07T16:47:56;27.65;;;14.75;;
19113;SDS011;9689;51.052;13.772;2024-03-07T16:53:00;31.75;;;15.52;;
19113;SDS011;9689;51.052;13.772;2024-03-07T16:58:05;55.58;;;19.70;;
19113;SDS011;9689;51.052;13.772;2024-03-07T17:03:13;32.08;;;15.10;;
19113;SDS011;9689;51.052;13.772;2024-03-07T17:08:15;29.75;;;14.90;;
19113;SDS011;9689;51.052;13.772;2024-03-07T17:13:18;33.92;;;16.52;;
19113;SDS011;9689;51.052;13.772;2024-03-07T17:18:20;32.60;;;16.48;;
19113;SDS011;9689;51.052;13.772;2024-03-07T17:23:24;31.38;;;15.63;;
19113;SDS011;9689;51.052;13.772;2024-03-07T17:28:25;30.40;;;15.82;;
19113;SDS011;9689;51.052;13.772;2024-03-07T17:33:27;36.80;;;17.63;;
19113;SDS011;9689;51.052;13.772;2024-03-07T17:38:28;34.38;;;16.77;;
19113;SDS011;9689;51.052;13.772;2024-03-07T17:43:32;36.63;;;18.02;;
19113;SDS011;9689;51.052;13.772;2024-03-07T17:48:34;33.40;;;17.45;;
19113;SDS011;9689;51.052;13.772;2024-03-07T17:53:36;34.22;;;17.85;;
19113;SDS011;9689;51.052;13.772;2024-03-07T17:58:37;35.65;;;17.25;;
19113;SDS011;9689;51.052;13.772;2024-03-07T18:03:39;37.30;;;18.20;;
19113;SDS011;9689;51.052;13.772;2024-03-07T18:08:41;38.63;;;19.20;;
19113;SDS011;9689;51.052;13.772;2024-03-07T18:13:54;34.38;;;17.65;;
19113;SDS011;9689;51.052;13.772;2024-03-07T18:18:56;34.70;;;17.65;;
19113;SDS011;9689;51.052;13.772;2024-03-07T18:23:56;36.58;;;18.95;;
19113;SDS011;9689;51.052;13.772;2024-03-07T18:28:57;38.20;;;18.20;;
19113;SDS011;9689;51.052;13.772;2024-03-07T18:33:59;35.22;;;17.95;;
19113;SDS011;9689;51.052;13.772;2024-03-07T18:39:01;41.30;;;18.08;;
19113;SDS011;9689;51.052;13.772;2024-03-07T18:44:10;46.03;;;19.98;;
19113;SDS011;9689;51.052;13.772;2024-03-07T18:49:12;34.67;;;17.15;;
19113;SDS011;9689;51.052;13.772;2024-03-07T18:54:13;35.70;;;17.55;;
19113;SDS011;9689;51.052;13.772;2024-03-07T18:59:15;34.45;;;18.48;;
19113;SDS011;9689;51.052;13.772;2024-03-07T19:04:19;35.42;;;19.33;;
19113;SDS011;9689;51.052;13.772;2024-03-07T19:09:20;37.97;;;18.67;;
19113;SDS011;9689;51.052;13.772;2024-03-07T19:14:22;35.30;;;17.95;;
19113;SDS011;9689;51.052;13.772;2024-03-07T19:19:24;37.03;;;19.00;;
19113;SDS011;9689;51.052;13.772;2024-03-07T19:24:29;34.38;;;18.48;;
19113;SDS011;9689;51.052;13.772;2024-03-07T19:29:29;35.97;;;19.00;;
19113;SDS011;9689;51.052;13.772;2024-03-07T19:34:32;36.42;;;18.30;;
19113;SDS011;9689;51.052;13.772;2024-03-07T19:39:33;40.10;;;19.10;;
19113;SDS011;9689;51.052;13.772;2024-03-07T19:44:37;41.83;;;19.30;;
19113;SDS011;9689;51.052;13.772;2024-03-07T19:49:40;37.83;;;18.50;;
19113;SDS011;9689;51.052;13.772;2024-03-07T19:54:41;44.22;;;20.45;;
19113;SDS011;9689;51.052;13.772;2024-03-07T19:59:41;42.50;;;20.00;;
19113;SDS011;9689;51.052;13.772;2024-03-07T20:04:44;47.83;;;20.83;;
19113;SDS011;9689;51.052;13.772;2024-03-07T20:09:45;39.05;;;20.42;;
19113;SDS011;9689;51.052;13.772;2024-03-07T20:14:46;41.90;;;20.52;;
19113;SDS011;9689;51.052;13.772;2024-03-07T20:19:50;38.08;;;20.10;;
19113;SDS011;9689;51.052;13.772;2024-03-07T20:24:50;44.63;;;20.75;;
19113;SDS011;9689;51.052;13.772;2024-03-07T20:29:51;43.97;;;19.27;;
19113;SDS011;9689;51.052;13.772;2024-03-07T20:34:54;43.25;;;19.55;;
19113;SDS011;9689;51.052;13.772;2024-03-07T20:39:55;40.60;;;20.13;;
19113;SDS011;9689;51.052;13.772;2024-03-07T20:45:08;39.95;;;19.17;;
19113;SDS011;9689;51.052;13.772;2024-03-07T20:50:12;43.20;;;20.88;;
19113;SDS011;9689;51.052;13.772;2024-03-07T20:55:15;40.45;;;20.38;;
19113;SDS011;9689;51.052;13.772;2024-03-07T21:00:18;42.70;;;19.30;;
19113;SDS011;9689;51.052;13.772;2024-03-07T21:05:25;38.47;;;18.38;;
19113;SDS011;9689;51.052;13.772;2024-03-07T21:10:26;42.75;;;19.15;;
19113;SDS011;9689;51.052;13.772;2024-03-07T21:15:29;40.97;;;20.52;;
19113;SDS011;9689;51.052;13.772;2024-03-07T21:20:31;40.00;;;19.55;;
19113;SDS011;9689;51.052;13.772;2024-03-07T21:25:31;44.50;;;20.75;;
19113;SDS011;9689;51.052;13.772;2024-03-07T21:30:34;42.67;;;20.67;;
19113;SDS011;9689;51.052;13.772;2024-03-07T21:35:37;43.20;;;20.00;;
19113;SDS011;9689;51.052;13.772;2024-03-07T21:40:40;40.15;;;19.60;;
19113;SDS011;9689;51.052;13.772;2024-03-07T21:45:42;45.38;;;21.35;;
19113;SDS011;9689;51.052;13.772;2024-03-07T21:50:45;43.40;;;22.02;;
19113;SDS011;9689;51.052;13.772;2024-03-07T21:55:47;39.10;;;20.00;;
19113;SDS011;9689;51.052;13.772;2024-03-07T22:00:48;38.30;;;20.60;;
19113;SDS011;9689;51.052;13.772;2024-03-07T22:05:52;43.67;;;20.63;;
19113;SDS011;9689;51.052;13.772;2024-03-07T22:10:56;45.67;;;20.00;;
19113;SDS011;9689;51.052;13.772;2024-03-07T22:15:57;46.83;;;22.05;;
19113;SDS011;9689;51.052;13.772;2024-03-07T22:20:59;43.42;;;19.83;;
19113;SDS011;9689;51.052;13.772;2024-03-07T22:26:00;37.28;;;19.30;;
19113;SDS011;9689;51.052;13.772;2024-03-07T22:31:01;40.50;;;19.23;;
19113;SDS011;9689;51.052;13.772;2024-03-07T22:36:05;44.10;;;21.50;;
19113;SDS011;9689;51.052;13.772;2024-03-07T22:41:08;38.55;;;19.63;;
19113;SDS011;9689;51.052;13.772;2024-03-07T22:46:09;41.40;;;20.98;;
19113;SDS011;9689;51.052;13.772;2024-03-07T22:51:12;45.08;;;20.75;;
19113;SDS011;9689;51.052;13.772;2024-03-07T22:56:13;40.90;;;19.77;;
19113;SDS011;9689;51.052;13.772;2024-03-07T23:01:15;41.75;;;19.65;;
19113;SDS011;9689;51.052;13.772;2024-03-07T23:06:18;44.60;;;20.52;;
19113;SDS011;9689;51.052;13.772;2024-03-07T23:11:18;40.80;;;20.30;;
19113;SDS011;9689;51.052;13.772;2024-03-07T23:16:19;41.08;;;19.33;;
19113;SDS011;9689;51.052;13.772;2024-03-07T23:21:21;39.45;;;19.73;;
19113;SDS011;9689;51.052;13.772;2024-03-07T23:26:23;42.78;;;20.67;;
19113;SDS011;9689;51.052;13.772;2024-03-07T23:31:24;42.58;;;19.63;;
19113;SDS011;9689;51.052;13.772;2024-03-07T23:36:26;36.40;;;19.48;;
19113;SDS011;9689;51.052;13.772;2024-03-07T23:41:27;44.30;;;20.85;;
19113;SDS011;9689;51.052;13.772;2024-03-07T23:46:31;40.50;;;19.92;;
19113;SDS011;9689;51.052;13.772;2024-03-07T23:51:33;46.45;;;20.83;;
19113;SDS011;9689;51.052;13.772;2024-03-07T23:56:35;40.53;;;19.98;;
